createdAt,value
2023-01-29T00:00:12.732Z,62.20
2023-01-29T00:02:39.703Z,62.21
2023-01-29T00:05:25.573Z,62.00
2023-01-29T00:07:53.408Z,62.03
2023-01-29T00:10:19.976Z,61.88
2023-01-29T00:12:46.533Z,61.95
2023-01-29T00:15:13.141Z,62.24
2023-01-29T00:17:39.695Z,62.00
2023-01-29T00:20:06.745Z,62.09
2023-01-29T00:22:33.325Z,61.82
2023-01-29T00:24:59.940Z,61.94
2023-01-29T00:27:26.519Z,61.96
2023-01-29T00:30:09.190Z,62.16
2023-01-29T00:32:36.328Z,61.93
2023-01-29T00:35:03.715Z,61.93
2023-01-29T00:37:30.719Z,61.79
2023-01-29T00:39:57.830Z,62.09
2023-01-29T00:42:43.422Z,62.16
2023-01-29T00:45:11.179Z,62.40
2023-01-29T00:47:37.882Z,62.29
2023-01-29T00:50:08.059Z,62.47
2023-01-29T00:52:36.469Z,62.44
2023-01-29T00:55:05.918Z,62.05
2023-01-29T00:57:34.328Z,62.22
2023-01-29T01:00:01.685Z,62.53
2023-01-29T01:02:47.002Z,62.39
2023-01-29T01:05:18.265Z,62.33
2023-01-29T01:07:53.286Z,62.55
2023-01-29T01:10:31.356Z,62.57
2023-01-29T01:12:59.319Z,62.63
2023-01-29T01:15:29.513Z,62.70
2023-01-29T01:17:58.584Z,62.33
2023-01-29T01:20:27.838Z,62.69
2023-01-29T01:22:55.064Z,62.97
2023-01-29T01:25:23.899Z,62.65
2023-01-29T01:30:26.139Z,62.77
2023-01-29T01:32:53.182Z,63.05
2023-01-29T01:35:19.954Z,63.30
2023-01-29T01:37:46.559Z,63.42
2023-01-29T01:40:22.137Z,63.17
2023-01-29T01:42:56.984Z,63.63
2023-01-29T01:45:35.421Z,63.53
2023-01-29T01:48:19.443Z,63.44
2023-01-29T01:50:52.368Z,63.73
2023-01-29T01:53:35.086Z,63.77
2023-01-29T01:56:04.904Z,63.69
2023-01-29T01:58:36.472Z,63.79
2023-01-29T02:01:05.992Z,63.66
2023-01-29T02:03:56.692Z,63.92
2023-01-29T02:06:41.884Z,63.80
2023-01-29T02:09:36.001Z,63.66
2023-01-29T02:12:08.661Z,63.55
2023-01-29T02:14:40.878Z,63.50
2023-01-29T02:17:10.377Z,63.43
2023-01-29T02:19:39.960Z,63.62
2023-01-29T02:22:20.881Z,63.72
2023-01-29T02:25:14.952Z,63.71
2023-01-29T02:28:32.908Z,63.24
2023-01-29T02:31:24.293Z,63.48
2023-01-29T02:34:08.631Z,63.08
2023-01-29T02:37:00.031Z,62.62
2023-01-29T02:39:38.663Z,62.78
2023-01-29T02:42:17.616Z,62.61
2023-01-29T02:44:52.353Z,62.53
2023-01-29T02:47:40.032Z,62.82
2023-01-29T02:50:06.602Z,62.33
2023-01-29T02:52:39.555Z,62.37
2023-01-29T02:55:15.774Z,62.42
2023-01-29T02:57:46.362Z,62.49
2023-01-29T03:00:16.101Z,62.25
2023-01-29T03:02:52.940Z,62.72
2023-01-29T03:05:28.853Z,62.77
2023-01-29T03:08:02.845Z,63.10
2023-01-29T03:10:54.595Z,63.07
2023-01-29T03:13:40.818Z,63.12
2023-01-29T03:16:19.228Z,63.26
2023-01-29T03:19:09.218Z,63.39
2023-01-29T03:22:14.431Z,63.23
2023-01-29T03:25:07.439Z,63.34
2023-01-29T03:28:04.513Z,63.40
2023-01-29T03:30:53.768Z,63.47
2023-01-29T03:33:23.988Z,63.55
2023-01-29T03:36:00.886Z,63.62
2023-01-29T03:38:32.164Z,63.67
2023-01-29T03:41:07.586Z,63.58
2023-01-29T03:43:50.879Z,63.91
2023-01-29T03:46:31.481Z,63.78
2023-01-29T03:48:58.024Z,63.93
2023-01-29T03:51:36.420Z,63.91
2023-01-29T03:54:35.549Z,63.89
2023-01-29T03:57:16.152Z,63.82
2023-01-29T04:00:19.137Z,63.81
2023-01-29T04:03:13.001Z,63.59
2023-01-29T04:05:47.645Z,63.84
2023-01-29T04:08:21.403Z,64.27
2023-01-29T04:10:51.208Z,63.75
2023-01-29T04:13:19.071Z,64.15
2023-01-29T04:15:50.794Z,63.98
2023-01-29T04:18:17.397Z,63.96
2023-01-29T04:20:44.550Z,63.72
2023-01-29T04:23:26.050Z,63.79
2023-01-29T04:26:21.856Z,63.89
2023-01-29T04:29:10.095Z,63.89
2023-01-29T04:32:02.032Z,63.80
2023-01-29T04:34:42.179Z,63.78
2023-01-29T04:37:17.087Z,63.85
2023-01-29T04:39:55.828Z,63.97
2023-01-29T04:42:25.368Z,63.94
2023-01-29T04:45:18.097Z,64.44
2023-01-29T04:47:54.357Z,64.54
2023-01-29T04:50:38.058Z,64.64
2023-01-29T04:53:09.315Z,64.72
2023-01-29T04:56:06.430Z,64.75
2023-01-29T04:58:39.735Z,64.45
2023-01-29T05:01:11.201Z,65.15
2023-01-29T05:03:41.098Z,64.84
2023-01-29T05:06:10.048Z,65.18
2023-01-29T05:08:39.166Z,65.35
2023-01-29T05:11:06.344Z,65.42
2023-01-29T05:13:39.255Z,65.89
2023-01-29T05:16:21.185Z,66.10
2023-01-29T05:18:48.355Z,66.28
2023-01-29T05:21:14.948Z,66.17
2023-01-29T05:23:57.350Z,66.19
2023-01-29T05:26:43.016Z,66.08
2023-01-29T05:29:12.279Z,66.20
2023-01-29T05:31:38.912Z,66.29
2023-01-29T05:34:05.502Z,66.29
2023-01-29T05:36:32.073Z,66.31
2023-01-29T05:38:58.662Z,66.43
2023-01-29T05:41:25.230Z,66.53
2023-01-29T05:43:51.835Z,66.61
2023-01-29T05:46:18.944Z,66.68
2023-01-29T05:48:45.653Z,66.96
2023-01-29T05:51:12.353Z,66.92
2023-01-29T05:53:38.893Z,66.79
2023-01-29T05:56:05.853Z,66.87
2023-01-29T05:58:33.418Z,66.94
2023-01-29T06:01:09.364Z,67.36
2023-01-29T06:03:36.011Z,70.50
2023-01-29T06:06:02.836Z,71.00
2023-01-29T06:08:29.406Z,68.25
2023-01-29T06:10:56.005Z,64.52
2023-01-29T06:13:23.696Z,62.16
2023-01-29T06:15:50.585Z,61.28
2023-01-29T06:18:17.455Z,62.13
2023-01-29T06:20:44.163Z,62.36
2023-01-29T06:23:10.742Z,63.29
2023-01-29T06:25:37.441Z,64.17
2023-01-29T06:28:04.248Z,64.39
2023-01-29T06:30:31.914Z,64.67
2023-01-29T06:32:59.478Z,64.88
2023-01-29T06:35:26.197Z,65.16
2023-01-29T06:37:52.791Z,65.52
2023-01-29T06:40:20.131Z,65.93
2023-01-29T06:42:46.744Z,66.38
2023-01-29T06:45:14.079Z,66.28
2023-01-29T06:47:40.636Z,66.62
2023-01-29T06:50:07.380Z,66.40
2023-01-29T06:52:33.966Z,66.51
2023-01-29T06:55:00.558Z,67.07
2023-01-29T06:57:30.104Z,66.95
2023-01-29T06:59:56.727Z,67.13
2023-01-29T07:02:23.486Z,67.24
2023-01-29T07:04:50.137Z,67.59
2023-01-29T07:07:16.744Z,67.74
2023-01-29T07:09:43.751Z,67.92
2023-01-29T07:12:11.106Z,68.05
2023-01-29T07:14:37.744Z,67.71
2023-01-29T07:17:04.371Z,67.61
2023-01-29T07:19:30.954Z,67.68
2023-01-29T07:21:57.638Z,68.09
2023-01-29T07:24:24.942Z,67.84
2023-01-29T07:26:51.681Z,67.80
2023-01-29T07:29:18.376Z,67.91
2023-01-29T07:31:45.281Z,68.04
2023-01-29T07:34:11.904Z,67.81
2023-01-29T07:36:38.501Z,68.21
2023-01-29T07:39:05.153Z,68.15
2023-01-29T07:41:31.761Z,67.69
2023-01-29T07:43:58.373Z,67.52
2023-01-29T07:46:25.038Z,67.50
2023-01-29T07:48:51.631Z,67.32
2023-01-29T07:51:18.660Z,67.03
2023-01-29T07:53:45.292Z,66.96
2023-01-29T07:56:11.898Z,66.99
2023-01-29T07:58:38.581Z,66.70
2023-01-29T08:01:07.513Z,66.63
2023-01-29T08:03:34.152Z,66.89
2023-01-29T08:06:00.876Z,67.03
2023-01-29T08:08:27.458Z,66.96
2023-01-29T08:10:54.019Z,66.99
2023-01-29T08:13:20.611Z,66.78
2023-01-29T08:15:47.278Z,66.89
2023-01-29T08:18:14.528Z,66.87
2023-01-29T08:20:41.228Z,67.14
2023-01-29T08:23:13.013Z,66.97
2023-01-29T08:25:39.731Z,67.02
2023-01-29T08:28:06.639Z,67.21
2023-01-29T08:30:34.409Z,66.85
2023-01-29T08:33:01.640Z,66.40
2023-01-29T08:35:28.250Z,66.42
2023-01-29T08:38:01.838Z,66.37
2023-01-29T08:40:31.958Z,66.22
2023-01-29T08:43:05.566Z,66.52
2023-01-29T08:45:35.833Z,66.28
2023-01-29T08:48:02.876Z,66.56
2023-01-29T08:50:34.495Z,66.41
2023-01-29T08:53:03.551Z,66.26
2023-01-29T08:55:30.352Z,66.03
2023-01-29T08:57:59.845Z,65.85
2023-01-29T09:00:26.668Z,64.88
2023-01-29T09:02:53.253Z,64.64
2023-01-29T09:05:20.345Z,64.03
2023-01-29T09:07:47.148Z,63.76
2023-01-29T09:10:13.900Z,63.08
2023-01-29T09:12:40.581Z,63.07
2023-01-29T09:15:07.864Z,63.00
2023-01-29T09:17:34.640Z,62.70
2023-01-29T09:20:01.220Z,62.26
2023-01-29T09:22:28.534Z,62.81
2023-01-29T09:24:55.184Z,62.94
2023-01-29T09:27:21.848Z,62.84
2023-01-29T09:29:48.493Z,62.18
2023-01-29T09:32:16.843Z,62.19
2023-01-29T09:34:46.204Z,61.57
2023-01-29T09:37:12.840Z,62.33
2023-01-29T09:39:39.406Z,62.03
2023-01-29T09:42:09.088Z,61.73
2023-01-29T09:45:06.114Z,61.67
2023-01-29T09:47:35.933Z,62.20
2023-01-29T09:50:15.547Z,61.78
2023-01-29T09:53:23.246Z,62.63
2023-01-29T09:55:56.246Z,62.65
2023-01-29T09:58:25.970Z,62.46
2023-01-29T10:01:23.309Z,62.21
2023-01-29T10:04:19.250Z,61.95
2023-01-29T10:07:04.516Z,62.13
2023-01-29T10:09:41.196Z,62.00
2023-01-29T10:12:32.512Z,61.68
2023-01-29T10:15:17.717Z,61.48
2023-01-29T10:18:04.969Z,61.22
2023-01-29T10:20:42.961Z,61.42
2023-01-29T10:23:12.298Z,61.56
2023-01-29T10:25:41.877Z,61.64
2023-01-29T10:28:50.273Z,61.05
2023-01-29T10:31:23.500Z,60.76
2023-01-29T10:34:03.463Z,60.11
2023-01-29T10:36:50.380Z,60.53
2023-01-29T10:39:20.603Z,59.91
2023-01-29T10:41:47.108Z,60.25
2023-01-29T10:44:29.197Z,60.00
2023-01-29T10:47:04.869Z,59.59
2023-01-29T10:49:52.899Z,59.31
2023-01-29T10:52:31.601Z,59.70
2023-01-29T10:55:17.072Z,59.93
2023-01-29T10:57:56.572Z,59.59
2023-01-29T11:00:27.414Z,59.30
2023-01-29T11:02:54.274Z,59.40
2023-01-29T11:05:55.008Z,59.38
2023-01-29T11:08:25.108Z,59.67
2023-01-29T11:11:07.466Z,58.62
2023-01-29T11:13:40.568Z,58.63
2023-01-29T11:16:09.486Z,58.96
2023-01-29T11:18:50.686Z,59.21
2023-01-29T11:21:17.503Z,59.18
2023-01-29T11:23:44.251Z,59.06
2023-01-29T11:26:19.300Z,59.00
2023-01-29T11:28:48.317Z,58.74
2023-01-29T11:31:35.212Z,59.16
2023-01-29T11:34:16.825Z,59.14
2023-01-29T11:36:45.004Z,58.94
2023-01-29T11:39:21.578Z,59.49
2023-01-29T11:41:52.849Z,59.39
2023-01-29T11:44:31.408Z,59.50
2023-01-29T11:47:11.714Z,59.56
2023-01-29T11:49:41.477Z,59.22
2023-01-29T11:52:10.338Z,59.42
2023-01-29T11:54:52.045Z,59.18
2023-01-29T11:57:26.364Z,59.63
2023-01-29T11:59:55.267Z,59.74
2023-01-29T12:02:35.727Z,58.74
2023-01-29T12:05:06.871Z,58.95
2023-01-29T12:07:34.645Z,58.55
2023-01-29T12:10:01.349Z,58.48
2023-01-29T12:12:29.970Z,58.12
2023-01-29T12:15:04.975Z,58.13
2023-01-29T12:17:38.045Z,58.30
2023-01-29T12:20:20.279Z,57.76
2023-01-29T12:23:31.205Z,57.52
2023-01-29T12:26:12.896Z,57.83
2023-01-29T12:29:01.744Z,58.31
2023-01-29T12:31:53.664Z,57.77
2023-01-29T12:34:46.306Z,57.36
2023-01-29T12:37:45.722Z,57.46
2023-01-29T12:40:17.741Z,57.06
2023-01-29T12:42:56.286Z,56.90
2023-01-29T12:45:26.031Z,57.23
2023-01-29T12:47:57.513Z,56.23
2023-01-29T12:50:28.860Z,56.43
2023-01-29T12:53:18.688Z,57.24
2023-01-29T12:55:48.950Z,57.20
2023-01-29T12:58:25.401Z,57.14
2023-01-29T13:00:57.194Z,57.61
2023-01-29T13:03:45.737Z,57.16
2023-01-29T13:06:18.100Z,56.92
2023-01-29T13:08:53.862Z,56.88
2023-01-29T13:11:26.680Z,56.75
2023-01-29T13:13:59.658Z,57.01
2023-01-29T13:16:30.819Z,57.17
2023-01-29T13:19:00.759Z,57.29
2023-01-29T13:21:31.468Z,57.36
2023-01-29T13:24:03.483Z,57.44
2023-01-29T13:26:31.889Z,57.30
2023-01-29T13:28:58.887Z,57.06
2023-01-29T13:31:34.414Z,56.90
2023-01-29T13:34:14.245Z,56.21
2023-01-29T13:36:50.208Z,57.38
2023-01-29T13:39:44.304Z,57.79
2023-01-29T13:42:19.156Z,57.71
2023-01-29T13:44:51.272Z,56.64
2023-01-29T13:47:26.681Z,57.60
2023-01-29T13:50:01.652Z,56.20
2023-01-29T13:52:40.853Z,56.26
2023-01-29T13:55:09.433Z,56.06
2023-01-29T13:57:45.018Z,54.81
2023-01-29T14:00:34.921Z,55.16
2023-01-29T14:03:01.429Z,54.35
2023-01-29T14:05:30.991Z,53.67
2023-01-29T14:07:59.271Z,54.04
2023-01-29T14:10:30.855Z,53.68
2023-01-29T14:13:03.318Z,53.32
2023-01-29T14:15:40.138Z,52.83
2023-01-29T14:18:06.803Z,52.85
2023-01-29T14:20:48.661Z,52.94
2023-01-29T14:23:41.615Z,53.33
2023-01-29T14:26:45.213Z,54.30
2023-01-29T14:29:34.339Z,54.23
2023-01-29T14:32:19.314Z,54.12
2023-01-29T14:34:49.791Z,53.82
2023-01-29T14:37:16.312Z,54.42
2023-01-29T14:39:43.047Z,54.52
2023-01-29T14:42:37.657Z,55.56
2023-01-29T14:45:21.924Z,55.97
2023-01-29T14:47:48.474Z,56.23
2023-01-29T14:50:33.298Z,56.96
2023-01-29T14:53:19.764Z,57.59
2023-01-29T14:56:03.278Z,57.68
2023-01-29T14:58:46.942Z,58.61
2023-01-29T15:01:37.329Z,58.73
2023-01-29T15:04:34.870Z,59.10
2023-01-29T15:07:12.492Z,58.97
2023-01-29T15:09:55.624Z,59.31
2023-01-29T15:12:25.631Z,59.26
2023-01-29T15:15:10.615Z,59.36
2023-01-29T15:17:49.699Z,59.95
2023-01-29T15:20:48.599Z,60.50
2023-01-29T15:23:28.681Z,60.41
2023-01-29T15:25:58.995Z,60.87
2023-01-29T15:28:28.899Z,60.96
2023-01-29T15:30:57.349Z,61.39
2023-01-29T15:33:24.197Z,61.23
2023-01-29T15:36:08.716Z,61.19
2023-01-29T15:38:36.184Z,61.38
2023-01-29T15:41:16.423Z,61.48
2023-01-29T15:43:56.126Z,61.50
2023-01-29T15:46:34.389Z,61.56
2023-01-29T15:49:07.009Z,61.74
2023-01-29T15:51:34.099Z,61.82
2023-01-29T15:54:03.494Z,61.98
2023-01-29T15:56:51.293Z,61.95
2023-01-29T15:59:22.112Z,62.11
2023-01-29T16:01:48.772Z,62.82
2023-01-29T16:04:21.068Z,62.74
2023-01-29T16:06:48.700Z,62.91
2023-01-29T16:09:19.687Z,63.11
2023-01-29T16:11:47.711Z,63.24
2023-01-29T16:14:17.645Z,63.40
2023-01-29T16:16:45.238Z,63.79
2023-01-29T16:19:22.473Z,63.62
2023-01-29T16:22:06.346Z,64.17
2023-01-29T16:24:36.563Z,64.52
2023-01-29T16:27:12.598Z,64.23
2023-01-29T16:29:39.504Z,64.47
2023-01-29T16:32:06.994Z,64.72
2023-01-29T16:34:37.802Z,64.97
2023-01-29T16:37:07.842Z,65.04
2023-01-29T16:39:44.440Z,65.33
2023-01-29T16:42:12.329Z,65.49
2023-01-29T16:44:40.215Z,65.68
2023-01-29T16:47:12.984Z,65.87
2023-01-29T16:49:39.653Z,65.96
2023-01-29T16:52:24.782Z,66.12
2023-01-29T16:54:52.133Z,66.52
2023-01-29T16:57:26.003Z,66.40
2023-01-29T16:59:56.009Z,66.62
2023-01-29T17:02:25.496Z,66.79
2023-01-29T17:04:55.878Z,67.04
2023-01-29T17:07:23.618Z,67.09
2023-01-29T17:09:56.286Z,67.33
2023-01-29T17:12:26.439Z,67.55
2023-01-29T17:15:01.408Z,67.70
2023-01-29T17:17:33.721Z,67.90
2023-01-29T17:20:14.133Z,67.86
2023-01-29T17:22:40.982Z,68.17
2023-01-29T17:25:08.098Z,68.19
2023-01-29T17:27:34.664Z,68.73
2023-01-29T17:30:01.359Z,68.43
2023-01-29T17:32:45.173Z,68.60
2023-01-29T17:35:15.933Z,68.78
2023-01-29T17:37:43.641Z,68.70
2023-01-29T17:40:42.401Z,69.02
2023-01-29T17:43:11.805Z,69.22
2023-01-29T17:45:39.571Z,69.35
2023-01-29T17:48:14.466Z,69.48
2023-01-29T17:50:48.332Z,69.31
2023-01-29T17:53:16.086Z,69.26
2023-01-29T17:55:43.333Z,69.53
2023-01-29T17:58:28.111Z,69.13
2023-01-29T18:00:55.297Z,69.38
2023-01-29T18:03:23.023Z,69.45
2023-01-29T18:05:50.287Z,69.08
2023-01-29T18:08:17.019Z,68.85
2023-01-29T18:10:44.632Z,68.40
2023-01-29T18:13:11.434Z,68.65
2023-01-29T18:15:38.176Z,68.64
2023-01-29T18:18:05.922Z,68.39
2023-01-29T18:20:36.723Z,68.28
2023-01-29T18:23:04.526Z,67.90
2023-01-29T18:25:31.602Z,68.21
2023-01-29T18:27:58.148Z,68.04
2023-01-29T18:30:24.941Z,67.95
2023-01-29T18:32:51.852Z,68.01
2023-01-29T18:35:18.689Z,67.90
2023-01-29T18:37:45.764Z,68.01
2023-01-29T18:40:13.837Z,68.05
2023-01-29T18:42:40.809Z,67.78
2023-01-29T18:45:08.177Z,67.64
2023-01-29T18:47:34.772Z,67.65
2023-01-29T18:50:01.374Z,67.78
2023-01-29T18:52:27.953Z,67.50
2023-01-29T18:54:54.549Z,67.44
2023-01-29T18:58:29.394Z,67.37
2023-01-29T19:00:09.446Z,67.44
2023-01-29T19:02:36.162Z,67.19
2023-01-29T19:05:02.749Z,67.13
2023-01-29T19:07:29.347Z,66.72
2023-01-29T19:09:56.143Z,66.55
2023-01-29T19:12:23.656Z,66.67
2023-01-29T19:14:50.246Z,66.34
2023-01-29T19:17:17.222Z,66.64
2023-01-29T19:19:43.814Z,66.66
2023-01-29T19:22:10.393Z,66.62
2023-01-29T19:24:39.072Z,66.75
2023-01-29T19:27:06.717Z,66.63
2023-01-29T19:29:33.496Z,66.81
2023-01-29T19:32:00.174Z,66.77
2023-01-29T19:34:26.989Z,66.95
2023-01-29T19:36:53.653Z,67.22
2023-01-29T19:39:20.479Z,67.22
2023-01-29T19:41:47.068Z,67.22
2023-01-29T19:44:13.695Z,67.43
2023-01-29T19:46:40.300Z,67.30
2023-01-29T19:49:07.238Z,67.97
2023-01-29T19:51:33.875Z,67.66
2023-01-29T19:54:00.512Z,67.90
2023-01-29T19:56:27.133Z,67.83
2023-01-29T19:58:57.485Z,67.81
2023-01-29T20:01:24.947Z,68.21
2023-01-29T20:03:52.065Z,67.85
2023-01-29T20:06:22.305Z,67.80
2023-01-29T20:08:49.099Z,67.75
2023-01-29T20:11:17.564Z,67.91
2023-01-29T20:13:46.936Z,67.93
2023-01-29T20:16:13.628Z,67.96
2023-01-29T20:18:40.226Z,67.99
2023-01-29T20:21:09.494Z,68.27
2023-01-29T20:23:38.577Z,68.14
2023-01-29T20:26:07.362Z,68.42
2023-01-29T20:28:34.995Z,68.58
2023-01-29T20:31:02.288Z,68.14
2023-01-29T20:33:29.200Z,68.21
2023-01-29T20:35:57.749Z,68.32
2023-01-29T20:38:25.644Z,68.56
2023-01-29T20:40:52.221Z,68.48
2023-01-29T20:43:18.790Z,68.99
2023-01-29T20:45:45.431Z,68.33
2023-01-29T20:48:12.216Z,68.42
2023-01-29T20:50:38.830Z,68.50
2023-01-29T20:53:05.414Z,68.38
2023-01-29T20:55:32.195Z,68.64
2023-01-29T20:58:06.432Z,68.52
2023-01-29T21:00:33.786Z,68.65
2023-01-29T21:03:00.542Z,68.67
2023-01-29T21:05:27.093Z,68.59
2023-01-29T21:07:53.800Z,68.40
2023-01-29T21:10:20.396Z,68.35
2023-01-29T21:12:47.028Z,68.80
2023-01-29T21:15:13.654Z,68.66
2023-01-29T21:17:40.202Z,69.01
2023-01-29T21:20:08.353Z,68.66
2023-01-29T21:22:34.959Z,68.76
2023-01-29T21:25:01.564Z,68.80
2023-01-29T21:27:28.133Z,69.17
2023-01-29T21:29:54.787Z,68.77
2023-01-29T21:32:21.353Z,68.75
2023-01-29T21:34:47.885Z,68.95
2023-01-29T21:37:14.508Z,69.17
2023-01-29T21:39:41.107Z,68.92
2023-01-29T21:42:26.036Z,69.17
2023-01-29T21:44:52.605Z,69.08
2023-01-29T21:47:19.256Z,69.13
2023-01-29T21:49:45.864Z,69.29
2023-01-29T21:52:13.237Z,69.13
2023-01-29T21:54:40.716Z,69.28
2023-01-29T21:57:12.505Z,69.42
2023-01-29T21:59:39.385Z,69.16
2023-01-29T22:02:06.687Z,69.27
2023-01-29T22:04:33.401Z,69.32
2023-01-29T22:06:59.969Z,69.25
2023-01-29T22:09:26.854Z,69.67
2023-01-29T22:11:53.589Z,69.69
2023-01-29T22:14:20.351Z,69.68
2023-01-29T22:16:46.954Z,69.61
2023-01-29T22:19:13.852Z,69.80
2023-01-29T22:21:40.784Z,69.99
2023-01-29T22:24:08.325Z,69.88
2023-01-29T22:26:35.850Z,69.84
2023-01-29T22:29:02.797Z,69.79
2023-01-29T22:31:29.451Z,69.73
2023-01-29T22:33:56.375Z,69.84
2023-01-29T22:36:23.130Z,69.81
2023-01-29T22:38:49.684Z,70.26
2023-01-29T22:41:16.320Z,70.14
2023-01-29T22:43:44.119Z,70.24
2023-01-29T22:46:11.812Z,70.50
2023-01-29T22:48:38.465Z,70.50
2023-01-29T22:51:11.786Z,70.57
2023-01-29T22:53:52.644Z,70.65
2023-01-29T22:56:20.907Z,70.43
2023-01-29T22:58:59.313Z,70.32
2023-01-29T23:01:29.682Z,70.49
2023-01-29T23:03:56.793Z,70.40
2023-01-29T23:06:24.441Z,70.24
2023-01-29T23:08:51.672Z,70.44
2023-01-29T23:11:20.711Z,70.39
2023-01-29T23:13:48.653Z,70.63
2023-01-29T23:16:16.844Z,70.68
2023-01-29T23:18:44.798Z,71.15
2023-01-29T23:21:12.594Z,71.31
2023-01-29T23:23:40.054Z,71.46
2023-01-29T23:26:26.501Z,71.48
2023-01-29T23:28:53.202Z,71.63
2023-01-29T23:31:19.771Z,71.71
2023-01-29T23:33:46.398Z,71.86
2023-01-29T23:36:13.137Z,72.13
2023-01-29T23:38:39.774Z,72.16
2023-01-29T23:41:06.407Z,72.03
2023-01-29T23:43:33.687Z,72.34
2023-01-29T23:46:00.300Z,72.41
2023-01-29T23:48:26.872Z,72.45
2023-01-29T23:50:53.432Z,72.42
2023-01-29T23:53:20.090Z,72.92
2023-01-29T23:56:01.930Z,73.10
2023-01-29T23:58:29.669Z,73.01
